createdAt,value
2018-11-28T00:02:10.655Z,86.62
2018-11-28T00:07:13.135Z,86.11
2018-11-28T00:12:15.592Z,86.46
2018-11-28T00:17:18.087Z,86.78
2018-11-28T00:22:20.668Z,86.48
2018-11-28T00:27:23.164Z,86.63
2018-11-28T00:32:25.599Z,86.00
2018-11-28T00:37:28.224Z,86.68
2018-11-28T00:42:31.127Z,85.94
2018-11-28T00:47:33.582Z,86.31
2018-11-28T00:52:36.121Z,86.49
2018-11-28T00:57:38.871Z,86.52
2018-11-28T01:02:41.447Z,86.67
2018-11-28T01:07:44.705Z,86.35
2018-11-28T01:12:47.859Z,86.61
2018-11-28T01:23:00.933Z,86.78
2018-11-28T01:28:03.425Z,86.69
2018-11-28T01:33:06.206Z,87.05
2018-11-28T01:38:08.672Z,87.42
2018-11-28T01:43:11.251Z,87.27
2018-11-28T01:48:13.725Z,87.32
2018-11-28T01:53:16.236Z,88.44
2018-11-28T01:58:19.595Z,88.25
2018-11-28T02:03:22.212Z,88.54
2018-11-28T02:08:24.771Z,88.35
2018-11-28T02:13:27.322Z,88.59
2018-11-28T02:18:29.718Z,89.09
2018-11-28T02:23:32.474Z,89.35
2018-11-28T02:28:35.005Z,89.26
2018-11-28T02:33:37.541Z,89.40
2018-11-28T02:38:40.166Z,89.20
2018-11-28T02:43:42.690Z,89.56
2018-11-28T02:48:45.183Z,89.53
2018-11-28T02:53:47.802Z,89.89
2018-11-28T02:58:50.382Z,90.02
2018-11-28T03:03:52.799Z,89.80
2018-11-28T03:08:55.269Z,90.28
2018-11-28T03:13:57.805Z,89.65
2018-11-28T03:19:00.461Z,89.71
2018-11-28T03:24:02.971Z,89.92
2018-11-28T03:29:05.611Z,90.06
2018-11-28T03:34:08.114Z,90.01
2018-11-28T03:39:11.423Z,89.86
2018-11-28T03:44:13.928Z,89.69
2018-11-28T03:49:16.422Z,90.02
2018-11-28T03:54:19.867Z,90.10
2018-11-28T03:59:22.355Z,89.45
2018-11-28T04:04:24.862Z,89.58
2018-11-28T04:09:27.408Z,89.68
2018-11-28T04:14:29.927Z,88.69
2018-11-28T04:19:32.455Z,88.43
2018-11-28T04:24:35.076Z,88.53
2018-11-28T04:29:37.628Z,88.24
2018-11-28T04:34:40.169Z,88.52
2018-11-28T04:39:42.941Z,88.36
2018-11-28T04:44:45.677Z,87.68
2018-11-28T04:49:48.507Z,87.79
2018-11-28T04:54:51.957Z,87.53
2018-11-28T04:59:55.103Z,87.46
2018-11-28T05:04:57.615Z,86.92
2018-11-28T05:10:00.360Z,86.84
2018-11-28T05:15:02.946Z,86.26
2018-11-28T05:20:08.446Z,86.68
2018-11-28T05:25:14.963Z,86.34
2018-11-28T05:30:18.266Z,86.16
2018-11-28T05:35:32.574Z,85.22
2018-11-28T05:40:35.082Z,85.41
2018-11-28T05:45:37.779Z,85.28
2018-11-28T05:50:40.400Z,85.34
2018-11-28T05:55:42.960Z,85.39
2018-11-28T06:00:45.869Z,85.26
2018-11-28T06:05:48.633Z,85.40
2018-11-28T06:10:51.073Z,85.31
2018-11-28T06:15:53.840Z,85.29
2018-11-28T06:20:56.607Z,85.69
2018-11-28T06:25:59.137Z,85.34
2018-11-28T06:31:01.639Z,85.46
2018-11-28T06:36:04.153Z,84.80
2018-11-28T06:41:06.645Z,85.45
2018-11-28T06:46:09.114Z,85.03
2018-11-28T06:51:11.707Z,85.06
2018-11-28T06:56:14.301Z,85.26
2018-11-28T07:01:16.791Z,84.77
2018-11-28T07:06:19.521Z,85.10
2018-11-28T07:11:21.950Z,84.97
2018-11-28T07:16:24.501Z,85.01
2018-11-28T07:21:26.964Z,84.92
2018-11-28T07:26:29.332Z,84.64
2018-11-28T07:31:31.806Z,84.99
2018-11-28T07:36:34.216Z,84.62
2018-11-28T07:41:36.748Z,84.58
2018-11-28T07:46:39.252Z,84.75
2018-11-28T07:51:41.778Z,84.94
2018-11-28T07:56:44.185Z,84.28
2018-11-28T08:01:46.652Z,84.13
2018-11-28T08:06:49.063Z,84.46
2018-11-28T08:11:51.924Z,84.27
2018-11-28T08:16:54.488Z,83.41
2018-11-28T08:21:56.952Z,83.93
2018-11-28T08:26:59.358Z,83.73
2018-11-28T08:32:01.889Z,83.43
2018-11-28T08:37:04.230Z,83.31
2018-11-28T08:42:06.736Z,83.02
2018-11-28T08:47:09.196Z,82.95
2018-11-28T08:52:11.635Z,82.74
2018-11-28T08:57:14.055Z,82.27
2018-11-28T09:02:16.575Z,82.53
2018-11-28T09:07:19.090Z,82.42
2018-11-28T09:12:21.612Z,81.97
2018-11-28T09:17:24.328Z,82.42
2018-11-28T09:22:26.884Z,82.54
2018-11-28T09:27:29.349Z,82.26
2018-11-28T09:32:31.851Z,81.96
2018-11-28T09:37:34.392Z,81.39
2018-11-28T09:42:37.218Z,81.29
2018-11-28T09:47:39.759Z,81.12
2018-11-28T09:52:42.354Z,81.13
2018-11-28T09:57:44.784Z,80.92
2018-11-28T10:02:47.807Z,80.69
2018-11-28T10:07:50.416Z,80.15
2018-11-28T10:12:52.897Z,80.38
2018-11-28T10:17:55.283Z,80.47
2018-11-28T10:22:58.580Z,80.02
2018-11-28T10:28:04.258Z,79.51
2018-11-28T10:33:09.963Z,79.46
2018-11-28T10:38:12.715Z,79.73
2018-11-28T10:43:15.335Z,78.56
2018-11-28T10:48:18.176Z,78.24
2018-11-28T10:53:20.694Z,77.90
2018-11-28T10:58:23.143Z,77.54
2018-11-28T11:03:31.272Z,77.48
2018-11-28T11:08:39.429Z,77.09
2018-11-28T11:13:46.557Z,76.64
2018-11-28T11:18:49.007Z,77.26
2018-11-28T11:23:51.483Z,76.11
2018-11-28T11:28:53.866Z,76.15
2018-11-28T11:33:56.288Z,75.45
2018-11-28T11:38:58.741Z,75.81
2018-11-28T11:44:01.169Z,74.88
2018-11-28T11:49:03.679Z,74.50
2018-11-28T11:54:06.504Z,74.17
2018-11-28T11:59:08.959Z,74.10
2018-11-28T12:04:11.672Z,74.62
2018-11-28T12:09:14.334Z,73.62
2018-11-28T12:14:16.976Z,73.69
2018-11-28T12:19:19.401Z,74.12
2018-11-28T12:24:22.480Z,73.79
2018-11-28T12:29:24.927Z,73.50
2018-11-28T12:34:27.394Z,73.87
2018-11-28T12:39:29.867Z,73.85
2018-11-28T12:44:32.300Z,73.83
2018-11-28T12:49:34.754Z,74.19
2018-11-28T12:54:37.251Z,74.57
2018-11-28T12:59:39.730Z,74.42
2018-11-28T13:04:42.178Z,74.31
2018-11-28T13:09:45.858Z,74.63
2018-11-28T13:14:48.288Z,74.40
2018-11-28T13:19:51.148Z,74.29
2018-11-28T13:24:53.562Z,74.36
2018-11-28T13:29:56.366Z,74.55
2018-11-28T13:34:58.975Z,74.71
2018-11-28T13:40:02.077Z,75.76
2018-11-28T13:45:08.327Z,75.56
2018-11-28T13:50:10.867Z,75.04
2018-11-28T14:00:20.009Z,76.11
2018-11-28T14:05:22.813Z,76.06
2018-11-28T14:10:26.010Z,76.10
2018-11-28T14:15:28.717Z,76.19
2018-11-28T14:20:31.452Z,76.33
2018-11-28T14:25:34.064Z,76.14
2018-11-28T14:30:37.175Z,76.16
2018-11-28T14:35:39.964Z,76.47
2018-11-28T14:40:42.694Z,76.40
2018-11-28T14:45:45.200Z,75.76
2018-11-28T14:50:47.956Z,76.23
2018-11-28T14:55:50.626Z,76.19
2018-11-28T15:00:53.188Z,76.44
2018-11-28T15:06:07.031Z,76.19
2018-11-28T15:11:11.082Z,75.89
2018-11-28T15:16:13.682Z,76.37
2018-11-28T15:21:16.180Z,76.28
2018-11-28T15:26:18.847Z,76.55
2018-11-28T15:31:21.577Z,75.79
2018-11-28T15:36:24.135Z,76.67
2018-11-28T15:41:27.088Z,76.82
2018-11-28T15:46:29.770Z,77.17
2018-11-28T15:51:32.316Z,77.12
2018-11-28T15:56:35.444Z,77.64
2018-11-28T16:01:38.319Z,77.43
2018-11-28T16:06:40.825Z,77.73
2018-11-28T16:11:43.523Z,77.54
2018-11-28T16:16:46.268Z,77.68
2018-11-28T16:21:49.175Z,77.87
2018-11-28T16:26:51.746Z,77.78
2018-11-28T16:31:54.526Z,77.82
2018-11-28T16:36:57.088Z,77.83
2018-11-28T16:41:59.713Z,78.33
2018-11-28T16:47:02.494Z,77.87
2018-11-28T16:52:05.334Z,77.71
2018-11-28T16:57:08.853Z,77.81
2018-11-28T17:02:11.826Z,77.86
2018-11-28T17:07:14.585Z,77.86
2018-11-28T17:12:17.151Z,77.43
2018-11-28T17:17:19.857Z,77.54
2018-11-28T17:22:23.225Z,77.85
2018-11-28T17:27:25.956Z,78.03
2018-11-28T17:32:28.424Z,77.98
2018-11-28T17:37:30.917Z,78.04
2018-11-28T17:42:33.429Z,78.58
2018-11-28T17:47:36.143Z,78.58
2018-11-28T17:52:38.625Z,78.58
2018-11-28T17:57:41.331Z,78.27
2018-11-28T18:02:43.874Z,77.79
2018-11-28T18:07:46.317Z,78.07
2018-11-28T18:13:09.635Z,78.02
2018-11-28T18:18:13.515Z,77.99
2018-11-28T18:23:16.180Z,78.13
2018-11-28T18:28:18.842Z,77.54
2018-11-28T18:33:21.823Z,78.12
2018-11-28T18:38:24.259Z,77.51
2018-11-28T18:43:26.916Z,77.27
2018-11-28T18:48:29.412Z,78.00
2018-11-28T18:53:32.146Z,78.13
2018-11-28T18:58:34.789Z,77.33
2018-11-28T19:03:37.334Z,77.62
2018-11-28T19:08:39.896Z,77.80
2018-11-28T19:13:43.259Z,78.55
2018-11-28T19:18:45.722Z,78.43
2018-11-28T19:23:48.570Z,79.25
2018-11-28T19:28:51.453Z,80.11
2018-11-28T19:33:54.055Z,80.58
2018-11-28T19:38:56.707Z,80.16
2018-11-28T19:43:59.331Z,80.82
2018-11-28T19:49:01.976Z,80.62
2018-11-28T19:54:04.827Z,80.29
2018-11-28T19:59:07.375Z,79.83
2018-11-28T20:04:09.957Z,80.41
2018-11-28T20:09:18.124Z,80.14
2018-11-28T20:14:21.509Z,80.03
2018-11-28T20:19:24.136Z,81.35
2018-11-28T20:24:26.622Z,82.71
2018-11-28T20:29:29.316Z,83.76
2018-11-28T20:34:31.978Z,83.75
2018-11-28T20:39:34.778Z,84.18
2018-11-28T20:44:37.604Z,83.56
2018-11-28T20:49:40.245Z,82.45
2018-11-28T20:54:42.765Z,83.23
2018-11-28T20:59:45.519Z,83.23
2018-11-28T21:04:48.064Z,82.98
2018-11-28T21:09:53.669Z,83.67
2018-11-28T21:14:56.460Z,83.59
2018-11-28T21:19:59.237Z,83.11
2018-11-28T21:25:01.739Z,83.43
2018-11-28T21:30:07.730Z,83.99
2018-11-28T21:35:11.993Z,83.44
2018-11-28T21:40:14.686Z,83.15
2018-11-28T21:45:18.975Z,83.72
2018-11-28T21:50:21.407Z,83.93
2018-11-28T21:55:24.456Z,84.26
2018-11-28T22:00:27.215Z,84.43
2018-11-28T22:05:29.696Z,84.15
2018-11-28T22:10:32.599Z,84.36
2018-11-28T22:15:35.061Z,85.36
2018-11-28T22:20:38.022Z,85.51
2018-11-28T22:25:40.423Z,86.29
2018-11-28T22:30:43.825Z,86.64
2018-11-28T22:35:46.420Z,87.19
2018-11-28T22:40:49.101Z,87.49
2018-11-28T22:45:51.951Z,87.78
2018-11-28T22:50:54.397Z,87.41
2018-11-28T22:55:57.397Z,87.58
2018-11-28T23:01:05.433Z,88.09
2018-11-28T23:06:07.988Z,88.51
2018-11-28T23:11:10.514Z,88.72
2018-11-28T23:16:12.945Z,87.99
2018-11-28T23:21:15.438Z,88.29
2018-11-28T23:26:17.928Z,88.56
2018-11-28T23:31:20.346Z,88.73
2018-11-28T23:36:22.816Z,88.46
2018-11-28T23:41:25.232Z,88.40
2018-11-28T23:46:27.624Z,88.30
2018-11-28T23:51:30.094Z,88.25
2018-11-28T23:56:32.738Z,88.44
